createdAt,value
2022-09-26T00:01:36.121Z,11.86
2022-09-26T00:04:18.391Z,11.83
2022-09-26T00:06:48.463Z,11.78
2022-09-26T00:09:17.043Z,11.78
2022-09-26T00:11:45.839Z,11.74
2022-09-26T00:14:17.706Z,11.67
2022-09-26T00:16:46.133Z,11.63
2022-09-26T00:19:14.556Z,11.64
2022-09-26T00:21:42.447Z,11.65
2022-09-26T00:24:10.297Z,11.62
2022-09-26T00:26:38.749Z,11.57
2022-09-26T00:29:10.044Z,11.53
2022-09-26T00:31:44.373Z,11.49
2022-09-26T00:34:14.260Z,11.44
2022-09-26T00:36:42.212Z,11.39
2022-09-26T00:39:13.350Z,11.37
2022-09-26T00:41:41.299Z,11.34
2022-09-26T00:44:41.577Z,11.26
2022-09-26T00:47:36.777Z,11.20
2022-09-26T00:50:13.766Z,11.14
2022-09-26T00:52:58.121Z,11.14
2022-09-26T00:55:30.765Z,11.08
2022-09-26T00:58:08.482Z,11.01
2022-09-26T01:00:37.587Z,10.92
2022-09-26T01:03:05.765Z,10.82
2022-09-26T01:05:36.478Z,10.82
2022-09-26T01:08:05.820Z,10.84
2022-09-26T01:10:36.538Z,10.82
2022-09-26T01:13:05.336Z,10.80
2022-09-26T01:15:34.651Z,10.76
2022-09-26T01:18:03.680Z,10.75
2022-09-26T01:21:01.637Z,10.68
2022-09-26T01:23:55.654Z,10.66
2022-09-26T01:26:42.980Z,10.61
2022-09-26T01:29:39.326Z,10.57
2022-09-26T01:32:34.979Z,10.52
2022-09-26T01:35:18.167Z,10.45
2022-09-26T01:38:26.805Z,10.43
2022-09-26T01:41:15.759Z,10.36
2022-09-26T01:44:01.164Z,10.39
2022-09-26T01:46:50.001Z,10.29
2022-09-26T01:49:48.846Z,10.24
2022-09-26T01:52:37.118Z,10.23
2022-09-26T01:55:29.811Z,10.23
2022-09-26T01:58:07.621Z,10.24
2022-09-26T02:00:38.125Z,10.22
2022-09-26T02:03:13.412Z,10.18
2022-09-26T02:05:56.515Z,10.09
2022-09-26T02:08:41.869Z,10.11
2022-09-26T02:11:12.523Z,10.11
2022-09-26T02:14:04.577Z,10.05
2022-09-26T02:16:38.007Z,10.05
2022-09-26T02:19:14.283Z,10.03
2022-09-26T02:21:43.881Z,9.94
2022-09-26T02:24:11.965Z,9.79
2022-09-26T02:26:42.388Z,9.85
2022-09-26T02:29:13.853Z,9.88
2022-09-26T02:31:51.066Z,9.91
2022-09-26T02:34:19.017Z,9.93
2022-09-26T02:36:47.233Z,9.96
2022-09-26T02:39:15.315Z,9.88
2022-09-26T02:41:50.880Z,9.83
2022-09-26T02:44:33.824Z,9.87
2022-09-26T02:47:26.684Z,9.90
2022-09-26T02:50:22.526Z,9.90
2022-09-26T02:53:16.995Z,9.83
2022-09-26T02:56:06.507Z,9.83
2022-09-26T02:59:10.420Z,9.85
2022-09-26T03:02:14.495Z,9.84
2022-09-26T03:04:50.919Z,9.83
2022-09-26T03:07:35.303Z,9.81
2022-09-26T03:10:07.972Z,9.81
2022-09-26T03:12:37.724Z,9.84
2022-09-26T03:15:07.626Z,9.83
2022-09-26T03:17:38.075Z,9.82
2022-09-26T03:20:11.518Z,9.79
2022-09-26T03:22:40.929Z,9.76
2022-09-26T03:25:11.474Z,9.72
2022-09-26T03:27:43.761Z,9.70
2022-09-26T03:30:14.295Z,9.68
2022-09-26T03:32:42.029Z,9.66
2022-09-26T03:35:10.415Z,9.62
2022-09-26T03:37:38.714Z,9.57
2022-09-26T03:40:10.359Z,9.57
2022-09-26T03:42:38.627Z,9.56
2022-09-26T03:45:10.382Z,9.54
2022-09-26T03:47:38.715Z,9.55
2022-09-26T03:50:07.209Z,9.52
2022-09-26T03:52:36.647Z,9.48
2022-09-26T03:55:05.365Z,9.47
2022-09-26T03:57:33.326Z,9.43
2022-09-26T04:00:01.398Z,9.39
2022-09-26T04:02:29.639Z,9.39
2022-09-26T04:04:57.598Z,9.39
2022-09-26T04:07:25.929Z,9.38
2022-09-26T04:09:53.791Z,9.36
2022-09-26T04:12:22.169Z,9.39
